createdAt,value
2022-07-29T00:00:26.314Z,23.35
2022-07-29T00:02:54.174Z,23.30
2022-07-29T00:05:22.783Z,23.27
2022-07-29T00:07:50.497Z,23.23
2022-07-29T00:10:18.355Z,23.21
2022-07-29T00:12:46.016Z,23.30
2022-07-29T00:15:15.730Z,23.39
2022-07-29T00:17:43.297Z,23.40
2022-07-29T00:20:11.654Z,23.39
2022-07-29T00:22:41.054Z,23.36
2022-07-29T00:25:11.018Z,23.33
2022-07-29T00:27:41.457Z,23.31
2022-07-29T00:30:09.799Z,23.30
2022-07-29T00:32:37.366Z,23.30
2022-07-29T00:35:26.054Z,23.32
2022-07-29T00:37:53.854Z,23.32
2022-07-29T00:40:23.484Z,23.31
2022-07-29T00:42:53.242Z,23.29
2022-07-29T00:45:22.900Z,23.27
2022-07-29T00:47:51.192Z,23.24
2022-07-29T00:50:18.955Z,23.19
2022-07-29T00:52:46.645Z,23.20
2022-07-29T00:55:16.893Z,23.17
2022-07-29T00:57:45.963Z,23.15
2022-07-29T01:00:20.412Z,23.14
2022-07-29T01:02:49.454Z,23.07
2022-07-29T01:05:19.944Z,23.06
2022-07-29T01:07:49.518Z,23.03
2022-07-29T01:10:18.187Z,23.05
2022-07-29T01:12:48.413Z,22.99
2022-07-29T01:15:16.437Z,22.95
2022-07-29T01:18:09.201Z,22.90
2022-07-29T01:20:55.602Z,22.87
2022-07-29T01:23:40.939Z,22.86
2022-07-29T01:26:32.681Z,22.86
2022-07-29T01:29:15.783Z,22.91
2022-07-29T01:32:01.126Z,22.93
2022-07-29T01:34:42.429Z,22.90
2022-07-29T01:37:17.783Z,22.87
2022-07-29T01:39:48.885Z,22.85
2022-07-29T01:42:50.499Z,22.86
2022-07-29T01:45:20.719Z,22.91
2022-07-29T01:48:28.961Z,22.92
2022-07-29T01:51:09.626Z,22.90
2022-07-29T01:53:46.285Z,22.90
2022-07-29T01:56:20.827Z,22.87
2022-07-29T01:58:51.815Z,22.84
2022-07-29T02:01:23.512Z,22.75
2022-07-29T02:03:52.586Z,22.68
2022-07-29T02:06:24.671Z,22.59
2022-07-29T02:08:57.778Z,22.49
2022-07-29T02:11:25.630Z,22.45
2022-07-29T02:13:55.709Z,22.41
2022-07-29T02:16:24.792Z,22.40
2022-07-29T02:18:56.120Z,22.37
2022-07-29T02:21:29.370Z,22.34
2022-07-29T02:24:01.547Z,22.34
2022-07-29T02:26:31.199Z,22.30
2022-07-29T02:29:01.091Z,22.27
2022-07-29T02:31:34.558Z,22.25
2022-07-29T02:34:05.498Z,22.21
2022-07-29T02:36:34.732Z,22.18
2022-07-29T02:39:03.691Z,22.14
2022-07-29T02:41:45.659Z,22.12
2022-07-29T02:44:17.377Z,22.10
2022-07-29T02:47:01.372Z,22.02
2022-07-29T02:49:50.134Z,21.96
2022-07-29T02:52:28.139Z,21.96
2022-07-29T02:55:27.962Z,21.96
2022-07-29T02:58:23.638Z,21.88
2022-07-29T03:00:53.558Z,21.86
2022-07-29T03:03:22.844Z,21.86
2022-07-29T03:05:50.482Z,21.82
2022-07-29T03:08:18.627Z,21.82
2022-07-29T03:10:48.318Z,21.81
2022-07-29T03:13:16.720Z,21.79
2022-07-29T03:15:46.193Z,21.81
2022-07-29T03:18:14.549Z,21.83
2022-07-29T03:20:42.400Z,21.81
2022-07-29T03:23:10.323Z,21.77
2022-07-29T03:25:37.932Z,21.79
2022-07-29T03:28:05.702Z,21.78
2022-07-29T03:30:35.635Z,21.74
2022-07-29T03:33:03.172Z,21.76
2022-07-29T03:35:41.226Z,21.78
2022-07-29T03:38:09.086Z,21.78
2022-07-29T03:40:57.059Z,21.79
2022-07-29T03:43:32.815Z,21.75
2022-07-29T03:46:02.729Z,21.73
2022-07-29T03:48:34.980Z,21.71
2022-07-29T03:51:02.614Z,21.73
2022-07-29T03:53:30.796Z,21.75
2022-07-29T03:56:04.278Z,21.76
2022-07-29T03:58:33.459Z,21.79
2022-07-29T04:01:03.853Z,21.86
2022-07-29T04:03:31.858Z,21.87
2022-07-29T04:06:01.572Z,21.89
2022-07-29T04:08:31.546Z,21.89
2022-07-29T04:11:01.642Z,21.92
2022-07-29T04:13:29.357Z,21.94
2022-07-29T04:15:57.164Z,21.99
2022-07-29T04:18:24.907Z,22.03
2022-07-29T04:20:52.656Z,22.05
2022-07-29T04:23:20.240Z,22.08
2022-07-29T04:25:48.108Z,22.09
2022-07-29T04:28:15.858Z,22.12
2022-07-29T04:30:44.837Z,22.15
2022-07-29T04:33:12.999Z,22.20
2022-07-29T04:35:49.842Z,22.25
2022-07-29T04:38:21.178Z,22.32
2022-07-29T04:40:49.815Z,22.42
2022-07-29T04:43:22.397Z,22.45
2022-07-29T04:45:50.573Z,22.51
2022-07-29T04:48:18.268Z,22.55
2022-07-29T04:50:48.292Z,22.63
2022-07-29T04:53:15.894Z,22.69
2022-07-29T04:55:43.480Z,22.78
2022-07-29T04:58:11.059Z,22.93
2022-07-29T05:00:39.137Z,23.10
2022-07-29T05:03:07.850Z,23.30
2022-07-29T05:05:35.711Z,23.57
2022-07-29T05:08:03.353Z,23.81
2022-07-29T05:10:31.052Z,24.03
2022-07-29T05:12:58.579Z,24.22
2022-07-29T05:15:26.205Z,24.29
2022-07-29T05:17:53.788Z,24.38
2022-07-29T05:20:27.365Z,24.58
2022-07-29T05:22:54.963Z,25.09
2022-07-29T05:25:23.336Z,25.45
2022-07-29T05:27:51.575Z,25.63
2022-07-29T05:30:21.058Z,26.07
2022-07-29T05:32:48.677Z,26.42
2022-07-29T05:35:18.279Z,26.91
2022-07-29T05:37:45.928Z,27.24
2022-07-29T05:40:13.607Z,27.91
2022-07-29T05:42:41.196Z,28.36
2022-07-29T05:45:12.320Z,28.80
2022-07-29T05:47:42.230Z,29.04
2022-07-29T05:50:10.602Z,29.35
2022-07-29T05:52:38.162Z,29.64
2022-07-29T05:55:06.677Z,29.58
2022-07-29T05:57:34.539Z,29.75
2022-07-29T06:00:02.129Z,29.96
2022-07-29T06:02:29.698Z,30.04
2022-07-29T06:05:00.355Z,30.34
2022-07-29T06:07:27.935Z,30.36
2022-07-29T06:09:55.607Z,29.72
2022-07-29T06:12:24.456Z,28.66
2022-07-29T06:14:54.198Z,28.02
2022-07-29T06:17:25.380Z,27.60
2022-07-29T06:19:53.079Z,26.91
2022-07-29T06:22:20.665Z,27.02
2022-07-29T06:24:48.263Z,26.86
2022-07-29T06:27:15.845Z,26.91
2022-07-29T06:29:43.419Z,26.96
2022-07-29T06:32:11.008Z,27.06
2022-07-29T06:34:38.592Z,27.06
2022-07-29T06:37:15.625Z,27.12
2022-07-29T06:39:43.474Z,27.18
2022-07-29T06:42:11.322Z,27.16
2022-07-29T06:44:38.858Z,27.04
2022-07-29T06:47:06.516Z,27.48
2022-07-29T06:49:34.137Z,27.81
2022-07-29T06:52:04.871Z,28.05
2022-07-29T06:54:32.428Z,28.38
2022-07-29T06:57:00.139Z,28.52
2022-07-29T06:59:33.548Z,28.78
2022-07-29T07:02:03.382Z,28.43
2022-07-29T07:04:33.488Z,28.87
2022-07-29T07:07:01.575Z,29.42
2022-07-29T07:09:40.001Z,29.55
2022-07-29T07:12:10.834Z,29.50
2022-07-29T07:14:41.950Z,29.77
2022-07-29T07:17:11.718Z,29.31
2022-07-29T07:19:39.302Z,29.53
2022-07-29T07:22:06.936Z,29.40
2022-07-29T07:24:34.552Z,29.38
2022-07-29T07:27:02.857Z,29.88
2022-07-29T07:29:32.861Z,29.94
2022-07-29T07:32:01.073Z,29.74
2022-07-29T07:34:29.552Z,29.97
2022-07-29T07:36:57.406Z,30.39
2022-07-29T07:39:27.934Z,30.40
2022-07-29T07:41:55.632Z,31.00
2022-07-29T07:44:23.778Z,31.05
2022-07-29T07:46:51.544Z,30.76
2022-07-29T07:49:20.102Z,31.08
2022-07-29T07:51:50.540Z,31.20
2022-07-29T07:54:20.758Z,31.39
2022-07-29T07:56:50.893Z,31.47
2022-07-29T07:59:21.143Z,32.08
2022-07-29T08:01:55.622Z,32.24
2022-07-29T08:04:28.631Z,31.97
2022-07-29T08:06:58.118Z,32.56
2022-07-29T08:09:29.858Z,32.96
2022-07-29T08:11:59.218Z,33.32
2022-07-29T08:14:29.321Z,33.30
2022-07-29T08:16:56.924Z,33.86
2022-07-29T08:19:24.742Z,33.82
2022-07-29T08:21:55.526Z,33.86
2022-07-29T08:24:41.657Z,34.51
2022-07-29T08:27:33.357Z,33.54
2022-07-29T08:29:59.119Z,33.23
2022-07-29T08:32:52.146Z,33.95
2022-07-29T08:35:17.284Z,34.68
2022-07-29T08:37:44.958Z,35.36
2022-07-29T08:40:13.207Z,35.30
2022-07-29T08:42:40.767Z,35.50
2022-07-29T08:45:09.533Z,36.20
2022-07-29T08:47:40.888Z,35.44
2022-07-29T08:50:10.487Z,36.19
2022-07-29T08:52:40.647Z,37.27
2022-07-29T08:55:10.611Z,37.30
2022-07-29T08:57:43.396Z,36.80
2022-07-29T09:00:20.170Z,37.54
2022-07-29T09:02:53.205Z,38.12
2022-07-29T09:05:24.797Z,38.45
2022-07-29T09:07:53.520Z,37.58
2022-07-29T09:10:23.390Z,38.08
2022-07-29T09:12:50.941Z,37.78
2022-07-29T09:15:19.590Z,37.97
2022-07-29T09:17:51.845Z,37.29
2022-07-29T09:20:22.559Z,37.10
2022-07-29T09:22:51.837Z,38.16
2022-07-29T09:25:37.734Z,37.88
2022-07-29T09:28:17.409Z,37.63
2022-07-29T09:30:56.494Z,37.97
2022-07-29T09:33:35.417Z,38.33
2022-07-29T09:36:08.765Z,37.69
2022-07-29T09:38:37.672Z,36.28
2022-07-29T09:41:07.619Z,36.17
2022-07-29T09:43:35.940Z,36.24
2022-07-29T09:46:13.979Z,36.23
2022-07-29T09:48:41.680Z,37.32
2022-07-29T09:51:24.187Z,36.57
2022-07-29T09:53:55.212Z,37.73
2022-07-29T09:56:45.234Z,37.55
2022-07-29T09:59:13.216Z,37.17
2022-07-29T10:01:40.828Z,36.04
2022-07-29T10:04:10.090Z,36.59
2022-07-29T10:07:03.969Z,38.00
2022-07-29T10:09:32.955Z,38.10
2022-07-29T10:12:15.518Z,37.64
2022-07-29T10:14:44.561Z,37.72
2022-07-29T10:17:13.706Z,37.57
2022-07-29T10:19:42.908Z,37.65
2022-07-29T10:22:13.161Z,38.86
2022-07-29T10:24:41.039Z,38.65
2022-07-29T10:27:12.462Z,39.11
2022-07-29T10:29:40.066Z,39.92
2022-07-29T10:32:22.879Z,39.78
2022-07-29T10:35:29.300Z,39.50
2022-07-29T10:38:32.549Z,38.40
2022-07-29T10:41:36.397Z,37.24
2022-07-29T10:44:19.174Z,37.78
2022-07-29T10:46:47.841Z,39.21
2022-07-29T10:49:17.107Z,39.55
2022-07-29T10:52:06.160Z,40.25
2022-07-29T10:54:43.854Z,38.27
2022-07-29T10:57:15.034Z,37.91
2022-07-29T10:59:48.273Z,38.17
2022-07-29T11:02:54.755Z,38.95
2022-07-29T11:05:32.188Z,39.13
2022-07-29T11:08:20.447Z,38.98
2022-07-29T11:10:50.249Z,38.74
2022-07-29T11:13:47.222Z,37.83
2022-07-29T11:16:17.566Z,35.84
2022-07-29T11:19:14.076Z,35.30
2022-07-29T11:21:53.521Z,35.42
2022-07-29T11:24:34.780Z,36.78
2022-07-29T11:27:18.199Z,36.78
2022-07-29T11:29:58.890Z,35.28
2022-07-29T11:32:39.846Z,36.13
2022-07-29T11:35:19.024Z,36.51
2022-07-29T11:37:52.678Z,37.20
2022-07-29T11:40:26.941Z,38.32
2022-07-29T11:42:55.199Z,39.37
2022-07-29T11:45:43.266Z,38.90
2022-07-29T11:48:29.197Z,37.42
2022-07-29T11:51:03.903Z,37.41
2022-07-29T11:53:36.215Z,37.45
2022-07-29T11:56:06.522Z,38.09
2022-07-29T11:58:34.434Z,36.83
2022-07-29T12:01:04.948Z,36.82
2022-07-29T12:04:06.844Z,36.40
2022-07-29T12:06:37.468Z,37.37
2022-07-29T12:09:14.761Z,37.23
2022-07-29T12:11:42.848Z,37.15
2022-07-29T12:14:27.399Z,38.11
2022-07-29T12:16:55.195Z,38.63
2022-07-29T12:19:23.592Z,37.75
2022-07-29T12:21:59.803Z,37.00
2022-07-29T12:24:46.866Z,36.90
2022-07-29T12:27:19.471Z,37.02
2022-07-29T12:30:02.876Z,36.60
2022-07-29T12:32:39.722Z,36.86
2022-07-29T12:35:12.338Z,36.50
2022-07-29T12:37:42.616Z,36.14
2022-07-29T12:40:13.641Z,35.96
2022-07-29T12:42:41.774Z,35.84
2022-07-29T12:45:09.887Z,36.06
2022-07-29T12:47:53.543Z,35.69
2022-07-29T12:50:26.138Z,35.05
2022-07-29T12:52:56.859Z,34.70
2022-07-29T12:55:44.380Z,34.06
2022-07-29T12:58:12.589Z,33.67
2022-07-29T13:00:41.018Z,34.17
2022-07-29T13:03:11.366Z,34.33
2022-07-29T13:05:49.458Z,34.09
2022-07-29T13:08:21.917Z,34.00
2022-07-29T13:10:50.529Z,34.08
2022-07-29T13:13:18.730Z,34.08
2022-07-29T13:15:48.852Z,33.74
2022-07-29T13:18:33.239Z,33.62
2022-07-29T13:21:16.533Z,33.61
2022-07-29T13:23:45.402Z,33.66
2022-07-29T13:26:13.748Z,33.57
2022-07-29T13:28:43.984Z,33.90
2022-07-29T13:31:12.192Z,33.61
2022-07-29T13:33:39.794Z,33.19
2022-07-29T13:36:08.015Z,33.33
2022-07-29T13:38:37.903Z,33.46
2022-07-29T13:41:05.644Z,33.62
2022-07-29T13:43:36.089Z,33.68
2022-07-29T13:46:03.768Z,33.63
2022-07-29T13:48:31.434Z,33.52
2022-07-29T13:50:59.076Z,33.30
2022-07-29T13:53:29.672Z,33.13
2022-07-29T13:55:57.329Z,32.77
2022-07-29T13:58:25.286Z,32.76
2022-07-29T14:00:52.930Z,33.11
2022-07-29T14:03:20.756Z,33.16
2022-07-29T14:05:48.306Z,33.18
2022-07-29T14:08:18.172Z,33.17
2022-07-29T14:10:45.705Z,32.87
2022-07-29T14:13:24.390Z,32.87
2022-07-29T14:15:53.086Z,33.01
2022-07-29T14:18:20.681Z,33.11
2022-07-29T14:20:48.238Z,33.04
2022-07-29T14:23:16.404Z,32.92
2022-07-29T14:25:44.558Z,33.07
2022-07-29T14:28:14.709Z,33.13
2022-07-29T14:30:42.741Z,33.16
2022-07-29T14:33:10.467Z,33.14
2022-07-29T14:35:38.158Z,32.90
2022-07-29T14:38:05.737Z,32.83
2022-07-29T14:40:33.503Z,32.79
2022-07-29T14:43:03.817Z,32.91
2022-07-29T14:45:32.494Z,32.98
2022-07-29T14:48:00.866Z,32.85
2022-07-29T14:50:31.758Z,32.74
2022-07-29T14:53:00.428Z,32.87
2022-07-29T14:55:28.441Z,32.83
2022-07-29T14:58:03.246Z,32.80
2022-07-29T15:00:38.685Z,32.83
2022-07-29T15:03:06.813Z,32.83
2022-07-29T15:05:39.259Z,32.87
2022-07-29T15:08:09.066Z,32.90
2022-07-29T15:10:37.007Z,32.84
2022-07-29T15:13:04.663Z,32.85
2022-07-29T15:15:32.865Z,32.74
2022-07-29T15:18:00.554Z,32.72
2022-07-29T15:20:28.295Z,32.65
2022-07-29T15:22:56.870Z,32.62
2022-07-29T15:25:26.344Z,32.65
2022-07-29T15:28:00.806Z,32.66
2022-07-29T15:30:32.722Z,32.65
2022-07-29T15:33:03.542Z,32.62
2022-07-29T15:35:31.323Z,32.66
2022-07-29T15:37:58.870Z,32.67
2022-07-29T15:40:26.698Z,32.62
2022-07-29T15:42:54.248Z,32.52
2022-07-29T15:45:21.959Z,32.46
2022-07-29T15:47:49.675Z,32.36
2022-07-29T15:50:17.486Z,32.36
2022-07-29T15:52:45.086Z,32.37
2022-07-29T15:55:12.650Z,32.36
2022-07-29T15:57:40.866Z,32.44
2022-07-29T16:00:10.348Z,32.45
2022-07-29T16:02:38.031Z,32.37
2022-07-29T16:05:09.302Z,32.29
2022-07-29T16:07:37.723Z,32.17
2022-07-29T16:10:07.836Z,32.11
2022-07-29T16:12:35.569Z,32.05
2022-07-29T16:15:08.949Z,32.03
2022-07-29T16:17:37.745Z,32.02
2022-07-29T16:20:06.829Z,31.99
2022-07-29T16:22:34.440Z,32.03
2022-07-29T16:25:04.334Z,32.05
2022-07-29T16:27:37.759Z,32.00
2022-07-29T16:30:08.685Z,31.97
2022-07-29T16:32:36.453Z,31.88
2022-07-29T16:35:05.352Z,31.88
2022-07-29T16:37:35.371Z,31.86
2022-07-29T16:40:03.566Z,31.65
2022-07-29T16:42:48.917Z,31.57
2022-07-29T16:45:21.405Z,31.54
2022-07-29T16:47:51.492Z,31.62
2022-07-29T16:50:20.214Z,31.63
2022-07-29T16:52:47.783Z,31.52
2022-07-29T16:55:15.387Z,31.42
2022-07-29T16:57:43.812Z,31.27
2022-07-29T17:00:11.966Z,31.10
2022-07-29T17:02:41.710Z,30.99
2022-07-29T17:05:10.627Z,30.91
2022-07-29T17:07:41.266Z,30.80
2022-07-29T17:10:10.315Z,30.73
2022-07-29T17:12:40.035Z,30.61
2022-07-29T17:15:10.143Z,30.48
2022-07-29T17:17:56.530Z,30.35
2022-07-29T17:20:26.654Z,30.18
2022-07-29T17:22:54.919Z,30.01
2022-07-29T17:25:24.127Z,29.87
2022-07-29T17:28:01.254Z,29.79
2022-07-29T17:30:29.570Z,29.67
2022-07-29T17:32:57.254Z,29.51
2022-07-29T17:35:42.312Z,29.37
2022-07-29T17:38:09.923Z,29.23
2022-07-29T17:40:38.118Z,29.07
2022-07-29T17:43:09.306Z,28.94
2022-07-29T17:45:50.266Z,28.79
2022-07-29T17:48:18.935Z,28.67
2022-07-29T17:50:47.517Z,28.55
2022-07-29T17:53:17.990Z,28.43
2022-07-29T17:55:48.582Z,28.29
2022-07-29T17:58:17.192Z,28.17
2022-07-29T18:01:05.113Z,28.05
2022-07-29T18:03:44.635Z,27.92
2022-07-29T18:06:12.421Z,27.81
2022-07-29T18:08:49.299Z,27.71
2022-07-29T18:11:16.915Z,27.60
2022-07-29T18:13:44.830Z,27.48
2022-07-29T18:16:15.190Z,27.38
2022-07-29T18:18:45.141Z,27.29
2022-07-29T18:21:15.108Z,27.18
2022-07-29T18:23:42.765Z,27.12
2022-07-29T18:26:12.055Z,27.03
2022-07-29T18:28:41.975Z,26.93
2022-07-29T18:31:10.104Z,26.87
2022-07-29T18:33:45.460Z,26.80
2022-07-29T18:36:13.057Z,26.73
2022-07-29T18:38:41.821Z,26.67
2022-07-29T18:41:09.906Z,26.60
2022-07-29T18:43:37.515Z,26.57
2022-07-29T18:46:06.664Z,26.57
2022-07-29T18:48:38.468Z,26.58
2022-07-29T18:51:09.474Z,26.57
2022-07-29T18:53:37.485Z,26.58
2022-07-29T18:56:05.373Z,26.59
2022-07-29T18:58:33.343Z,26.59
2022-07-29T19:01:01.950Z,26.61
2022-07-29T19:03:29.521Z,26.68
2022-07-29T19:05:57.132Z,26.69
2022-07-29T19:08:24.732Z,26.64
2022-07-29T19:10:55.684Z,26.68
2022-07-29T19:13:23.800Z,26.86
2022-07-29T19:15:53.996Z,27.11
2022-07-29T19:18:21.686Z,27.36
2022-07-29T19:20:54.269Z,27.56
2022-07-29T19:23:21.882Z,27.62
2022-07-29T19:25:53.651Z,27.65
2022-07-29T19:28:21.996Z,27.62
2022-07-29T19:30:50.203Z,27.62
2022-07-29T19:33:21.931Z,27.61
2022-07-29T19:35:54.579Z,27.62
2022-07-29T19:38:22.777Z,27.55
2022-07-29T19:40:50.458Z,27.49
2022-07-29T19:43:50.353Z,27.42
2022-07-29T19:46:10.222Z,27.38
2022-07-29T19:48:40.405Z,27.34
2022-07-29T19:51:10.462Z,27.29
2022-07-29T19:53:45.931Z,27.25
2022-07-29T19:56:16.602Z,27.17
2022-07-29T19:58:45.275Z,27.12
2022-07-29T20:01:20.223Z,27.02
2022-07-29T20:03:47.790Z,27.00
2022-07-29T20:06:15.457Z,26.96
2022-07-29T20:08:42.996Z,26.92
2022-07-29T20:11:10.566Z,26.91
2022-07-29T20:13:38.242Z,26.85
2022-07-29T20:16:08.215Z,26.85
2022-07-29T20:18:38.290Z,26.82
2022-07-29T20:21:05.866Z,26.79
2022-07-29T20:23:33.698Z,26.76
2022-07-29T20:26:01.405Z,26.71
2022-07-29T20:28:29.051Z,26.70
2022-07-29T20:30:56.950Z,26.68
2022-07-29T20:33:26.933Z,26.62
2022-07-29T20:35:54.673Z,26.56
2022-07-29T20:38:22.255Z,26.51
2022-07-29T20:40:53.974Z,26.43
2022-07-29T20:43:23.879Z,26.45
2022-07-29T20:45:51.507Z,26.42
2022-07-29T20:48:21.741Z,26.36
2022-07-29T20:50:52.918Z,26.30
2022-07-29T20:53:20.602Z,26.26
2022-07-29T20:55:48.134Z,26.24
2022-07-29T20:58:15.682Z,26.23
2022-07-29T21:00:43.435Z,26.18
2022-07-29T21:03:11.117Z,26.10
2022-07-29T21:05:41.582Z,26.07
2022-07-29T21:08:11.461Z,26.00
2022-07-29T21:10:39.023Z,25.93
2022-07-29T21:13:08.798Z,25.84
2022-07-29T21:15:36.679Z,25.72
2022-07-29T21:18:06.268Z,25.65
2022-07-29T21:20:33.838Z,25.57
2022-07-29T21:23:01.436Z,25.51
2022-07-29T21:25:29.344Z,25.43
2022-07-29T21:28:14.463Z,25.33
2022-07-29T21:30:42.054Z,25.24
2022-07-29T21:33:12.344Z,25.19
2022-07-29T21:36:10.545Z,25.12
2022-07-29T21:38:27.733Z,25.07
2022-07-29T21:40:55.712Z,24.99
2022-07-29T21:43:26.580Z,24.93
2022-07-29T21:45:54.450Z,24.86
2022-07-29T21:48:23.061Z,24.79
2022-07-29T21:50:55.091Z,24.78
2022-07-29T21:53:23.246Z,24.70
2022-07-29T21:55:55.314Z,24.59
2022-07-29T21:58:24.567Z,24.54
2022-07-29T22:00:54.564Z,24.48
2022-07-29T22:03:22.242Z,24.43
2022-07-29T22:05:49.790Z,24.41
2022-07-29T22:08:19.699Z,24.33
2022-07-29T22:10:49.773Z,24.26
2022-07-29T22:13:32.902Z,24.25
2022-07-29T22:16:04.584Z,24.21
2022-07-29T22:18:32.165Z,24.10
2022-07-29T22:21:02.260Z,24.07
2022-07-29T22:23:29.940Z,24.04
2022-07-29T22:25:59.990Z,24.01
2022-07-29T22:28:27.651Z,23.98
2022-07-29T22:30:57.681Z,23.93
2022-07-29T22:33:25.320Z,23.90
2022-07-29T22:35:52.918Z,23.83
2022-07-29T22:38:20.917Z,23.82
2022-07-29T22:40:51.278Z,23.77
2022-07-29T22:43:19.015Z,23.73
2022-07-29T22:45:46.679Z,23.65
2022-07-29T22:48:14.262Z,23.64
2022-07-29T22:50:41.950Z,23.58
2022-07-29T22:53:11.897Z,23.55
2022-07-29T22:55:39.483Z,23.53
2022-07-29T22:58:07.234Z,23.49
2022-07-29T23:00:37.280Z,23.42
2022-07-29T23:03:05.017Z,23.37
2022-07-29T23:05:32.600Z,23.33
2022-07-29T23:08:00.223Z,23.31
2022-07-29T23:10:28.281Z,23.32
2022-07-29T23:12:55.889Z,23.32
2022-07-29T23:15:23.711Z,23.30
2022-07-29T23:17:51.318Z,23.26
2022-07-29T23:20:19.167Z,23.19
2022-07-29T23:22:46.741Z,23.17
2022-07-29T23:25:14.398Z,23.13
2022-07-29T23:27:42.247Z,23.07
2022-07-29T23:30:12.720Z,23.01
2022-07-29T23:32:40.335Z,22.97
2022-07-29T23:35:11.804Z,22.93
2022-07-29T23:37:39.451Z,22.91
2022-07-29T23:40:13.680Z,22.88
2022-07-29T23:42:46.980Z,22.85
2022-07-29T23:45:15.152Z,22.85
2022-07-29T23:47:45.168Z,22.87
2022-07-29T23:50:16.903Z,22.84
2022-07-29T23:52:45.545Z,22.80
2022-07-29T23:55:36.331Z,22.73
2022-07-29T23:58:04.908Z,22.72
